Surry, Virginia
Current Conditions -  °F | °C
As of 8:55 PM on Monday 24 Nov 2014 (Local Time) from KJGG Reporting Station
Clear Clear  
Wind Chill: 70°   Ceiling: Unl
Heat Index: 70°   Visibility: 10mi
Dew Point: 64°   Wind: 5mph
Humidity: 83%   Direction: 220°SW
Pressure: 29.85"   Gusts: NA
Location:  37.14°N, 76.84°W
Report Text: KJGG 250155Z AUTO 22004KT 10SM CLR 21/18 A2985 RMK AO1
Loading
Personal Weather Stations






























Interactive Weather Map New forecast layout! Learn more

10-Day Weather Forecast

Advertisements
Track Severe Weather on mobile